Time;durP1;ratioP1;P1;durP2;ratioP2;P2;SDS_P1;SDS_P2;PMS_P1;PMS_P2;Temp;Humidity;BMP_temperature;BMP_pressure;BME280_temperature;BME280_humidity;BME280_pressure;Samples;Min_cycle;Max_cycle;Signal;HPM_P1;HPM_P2
2021/10/16 00:00:15;;;;;;;17.95;13.02;;;7.40;82.30;;;;;;5074497;28;20040;-68
2021/10/16 00:02:41;;;;;;;17.88;12.80;;;7.50;82.20;;;;;;5093115;28;20029;-69
2021/10/16 00:05:07;;;;;;;20.48;13.90;;;7.50;82.00;;;;;;5094220;28;20044;-69
2021/10/16 00:07:33;;;;;;;20.20;13.80;;;7.50;81.70;;;;;;5070144;28;20037;-69
2021/10/16 00:09:59;;;;;;;23.67;15.63;;;7.50;81.70;;;;;;5059185;28;20043;-69
2021/10/16 00:12:26;;;;;;;20.85;14.35;;;7.50;81.90;;;;;;5059398;28;20548;-67
2021/10/16 00:14:53;;;;;;;19.02;13.18;;;7.50;82.40;;;;;;5059190;28;20032;-69
2021/10/16 00:17:19;;;;;;;20.63;14.35;;;7.50;81.80;;;;;;5059004;28;20471;-69
2021/10/16 00:19:45;;;;;;;23.00;15.90;;;7.50;81.60;;;;;;5059046;28;20054;-69
2021/10/16 00:22:11;;;;;;;19.42;13.82;;;7.50;81.70;;;;;;5073035;28;20398;-68
2021/10/16 00:24:37;;;;;;;20.65;14.50;;;7.60;81.60;;;;;;5085778;28;20411;-69
2021/10/16 00:27:03;;;;;;;27.20;19.55;;;7.60;81.50;;;;;;5056762;28;20412;-69
2021/10/16 00:29:29;;;;;;;25.48;17.67;;;7.60;81.50;;;;;;5056745;28;20455;-69
2021/10/16 00:31:55;;;;;;;28.95;19.30;;;7.60;81.60;;;;;;5038840;28;20108;-68
2021/10/16 00:34:20;;;;;;;34.63;23.70;;;7.60;81.60;;;;;;5056712;28;20025;-69
2021/10/16 00:36:46;;;;;;;36.00;25.90;;;7.50;81.80;;;;;;5056853;28;20429;-69
2021/10/16 00:39:12;;;;;;;32.10;22.13;;;7.50;82.20;;;;;;5056848;28;20036;-69
2021/10/16 00:41:37;;;;;;;37.75;26.13;;;7.60;82.40;;;;;;5038783;28;20037;-69
2021/10/16 00:44:13;;;;;;;41.88;28.10;;;7.60;82.80;;;;;;5056329;28;20029;-69
2021/10/16 00:46:39;;;;;;;41.83;29.90;;;7.60;83.10;;;;;;5062575;28;20075;-68
2021/10/16 00:49:05;;;;;;;44.83;31.60;;;7.50;83.60;;;;;;5076331;28;20036;-69
2021/10/16 00:51:31;;;;;;;38.30;27.55;;;7.50;84.20;;;;;;5076410;28;20051;-69
2021/10/16 00:53:56;;;;;;;45.42;32.25;;;7.50;84.40;;;;;;5058526;28;20116;-69
2021/10/16 00:56:22;;;;;;;45.95;33.15;;;7.40;84.20;;;;;;5058264;28;20021;-69
2021/10/16 00:58:48;;;;;;;45.70;32.00;;;7.40;84.40;;;;;;5076295;28;20064;-69
2021/10/16 01:01:13;;;;;;;48.90;34.95;;;7.40;84.10;;;;;;5058122;28;20028;-69
2021/10/16 01:03:39;;;;;;;45.63;33.30;;;7.30;84.00;;;;;;5057974;28;20427;-69
2021/10/16 01:06:05;;;;;;;42.50;32.38;;;7.30;83.90;;;;;;5058096;28;20078;-69
2021/10/16 01:08:30;;;;;;;45.58;31.83;;;7.20;84.00;;;;;;5057977;28;20032;-69
2021/10/16 01:10:57;;;;;;;54.00;37.67;;;7.20;84.40;;;;;;5075979;28;20059;-68
2021/10/16 01:13:26;;;;;;;59.35;40.17;;;7.10;84.60;;;;;;5057928;28;20024;-69
2021/10/16 01:15:53;;;;;;;63.58;40.35;;;7.10;84.90;;;;;;5057983;28;20089;-69
2021/10/16 01:18:21;;;;;;;79.85;46.42;;;7.10;85.30;;;;;;5089219;28;20469;-70
2021/10/16 01:20:54;;;;;;;75.57;50.17;;;7.00;85.70;;;;;;5075749;28;20025;-69
2021/10/16 01:23:20;;;;;;;50.33;34.25;;;7.00;86.00;;;;;;5075784;28;20017;-69
2021/10/16 01:25:46;;;;;;;47.15;33.65;;;6.90;86.80;;;;;;5057717;28;20036;-69
2021/10/16 01:28:15;;;;;;;49.83;33.50;;;6.90;86.70;;;;;;5075459;28;20115;-69
2021/10/16 01:30:41;;;;;;;54.05;34.35;;;6.90;86.80;;;;;;5076118;28;20044;-69
2021/10/16 01:33:06;;;;;;;50.75;31.75;;;7.00;87.10;;;;;;5075668;28;20109;-69
2021/10/16 01:35:32;;;;;;;62.10;41.20;;;7.00;87.00;;;;;;5057592;28;20028;-69
2021/10/16 01:37:58;;;;;;;60.03;42.38;;;7.00;87.00;;;;;;5075738;28;20032;-69
2021/10/16 01:40:24;;;;;;;62.67;38.30;;;7.00;87.00;;;;;;5057268;28;20048;-69
2021/10/16 01:42:50;;;;;;;65.20;37.45;;;7.10;87.20;;;;;;5075377;28;20107;-69
2021/10/16 01:45:17;;;;;;;57.38;35.55;;;7.10;87.30;;;;;;5075519;28;20024;-69
2021/10/16 01:47:46;;;;;;;61.00;37.90;;;7.20;87.50;;;;;;5058698;28;20036;-69
2021/10/16 01:50:12;;;;;;;62.45;37.83;;;7.20;87.70;;;;;;5057508;28;20033;-69
2021/10/16 01:52:38;;;;;;;56.40;38.25;;;7.20;87.70;;;;;;5075065;28;20043;-69
2021/10/16 01:55:04;;;;;;;58.13;37.72;;;7.20;88.10;;;;;;5057026;28;20040;-67
2021/10/16 01:57:30;;;;;;;54.17;35.75;;;7.20;88.40;;;;;;5075006;28;20020;-69
2021/10/16 01:59:55;;;;;;;75.57;46.13;;;7.20;88.80;;;;;;5075271;28;20028;-69
2021/10/16 02:02:22;;;;;;;62.72;31.25;;;7.20;88.80;;;;;;5074868;28;20028;-69
2021/10/16 02:04:47;;;;;;;55.35;31.42;;;7.30;88.00;;;;;;5057059;28;20087;-69
2021/10/16 02:07:13;;;;;;;51.58;25.10;;;7.30;87.20;;;;;;5056935;28;20029;-69
2021/10/16 02:09:39;;;;;;;37.80;24.95;;;7.40;86.30;;;;;;5074724;28;20032;-69
2021/10/16 02:12:05;;;;;;;37.33;22.65;;;7.40;85.60;;;;;;5056127;28;20024;-70
2021/10/16 02:14:30;;;;;;;49.42;31.48;;;7.40;85.00;;;;;;5069355;28;20036;-69
2021/10/16 02:16:57;;;;;;;54.92;30.42;;;7.50;84.60;;;;;;5074732;28;20060;-69
2021/10/16 02:19:23;;;;;;;51.72;28.83;;;7.50;84.40;;;;;;5074712;28;20028;-69
2021/10/16 02:21:49;;;;;;;54.63;34.67;;;7.60;84.40;;;;;;5056759;28;20021;-71
2021/10/16 02:24:14;;;;;;;62.55;38.72;;;7.60;84.50;;;;;;5074570;28;20020;-69
2021/10/16 02:26:40;;;;;;;60.60;37.97;;;7.50;85.00;;;;;;5074519;28;20409;-69
2021/10/16 02:29:06;;;;;;;62.40;38.70;;;7.50;85.50;;;;;;5074380;28;20078;-69
2021/10/16 02:31:32;;;;;;;74.30;41.40;;;7.50;85.80;;;;;;5056859;28;20425;-69
2021/10/16 02:33:58;;;;;;;59.75;37.47;;;7.50;86.30;;;;;;5056535;28;20379;-69
2021/10/16 02:36:23;;;;;;;58.90;37.53;;;7.40;86.70;;;;;;5056395;28;20058;-69
2021/10/16 02:38:49;;;;;;;69.50;40.78;;;7.40;87.10;;;;;;5056350;28;20028;-69
2021/10/16 02:41:14;;;;;;;66.40;43.10;;;7.40;87.50;;;;;;5074196;28;20064;-69
2021/10/16 02:43:40;;;;;;;66.45;44.83;;;7.40;87.50;;;;;;5056958;28;20020;-69
2021/10/16 02:46:06;;;;;;;70.32;43.10;;;7.30;87.40;;;;;;5056324;28;20429;-69
2021/10/16 02:48:32;;;;;;;69.85;47.90;;;7.30;88.00;;;;;;5055960;28;20032;-69
2021/10/16 02:50:57;;;;;;;66.43;43.85;;;7.20;88.30;;;;;;5074017;28;20078;-69
2021/10/16 02:53:23;;;;;;;66.72;43.47;;;7.20;88.90;;;;;;5056161;28;20031;-69
2021/10/16 02:55:49;;;;;;;64.55;42.70;;;7.10;89.40;;;;;;5056007;28;20111;-69
2021/10/16 02:58:14;;;;;;;62.13;42.38;;;7.10;90.00;;;;;;5056143;28;20383;-67
2021/10/16 03:00:40;;;;;;;54.33;36.85;;;7.10;90.10;;;;;;5074287;28;20029;-69
2021/10/16 03:03:05;;;;;;;72.80;42.20;;;7.10;90.10;;;;;;5073665;28;20032;-69
2021/10/16 03:05:31;;;;;;;65.40;42.88;;;7.20;90.10;;;;;;5073744;28;20051;-69
2021/10/16 03:07:57;;;;;;;47.15;33.45;;;7.20;90.00;;;;;;5055629;28;20554;-69
2021/10/16 03:10:22;;;;;;;58.10;38.95;;;7.20;89.30;;;;;;5086435;28;20028;-69
2021/10/16 03:12:48;;;;;;;57.63;39.97;;;7.20;89.30;;;;;;5094324;28;20024;-69
2021/10/16 03:15:14;;;;;;;57.50;41.75;;;7.20;89.40;;;;;;5094316;28;20110;-69
2021/10/16 03:17:39;;;;;;;52.58;37.40;;;7.20;89.40;;;;;;5094230;28;20028;-69
2021/10/16 03:20:06;;;;;;;43.28;30.30;;;7.20;89.90;;;;;;5075677;28;20031;-69
2021/10/16 03:22:31;;;;;;;33.78;23.95;;;7.10;89.60;;;;;;5075664;28;20040;-70
2021/10/16 03:24:57;;;;;;;47.85;33.67;;;7.20;89.20;;;;;;5093869;28;20031;-67
2021/10/16 03:27:23;;;;;;;29.67;22.15;;;7.20;89.00;;;;;;5076049;28;20024;-67
2021/10/16 03:29:48;;;;;;;19.13;14.20;;;7.10;88.50;;;;;;5093773;28;20063;-69
2021/10/16 03:32:14;;;;;;;22.30;15.10;;;7.10;87.60;;;;;;5093736;28;20192;-68
2021/10/16 03:34:40;;;;;;;29.05;21.92;;;7.10;87.20;;;;;;5091108;28;20028;-68
2021/10/16 03:37:05;;;;;;;37.92;27.50;;;7.10;87.20;;;;;;5073407;28;20033;-65
2021/10/16 03:39:31;;;;;;;41.78;30.33;;;7.20;87.80;;;;;;5055528;28;20123;-68
2021/10/16 03:41:57;;;;;;;40.85;27.85;;;7.30;88.30;;;;;;5075530;28;20032;-68
2021/10/16 03:44:22;;;;;;;36.63;26.10;;;7.30;88.70;;;;;;5077948;28;20024;-68
2021/10/16 03:46:48;;;;;;;43.55;27.05;;;7.30;88.90;;;;;;5059639;28;20021;-68
2021/10/16 03:49:13;;;;;;;28.52;19.20;;;7.30;88.90;;;;;;5059561;28;20064;-68
2021/10/16 03:51:39;;;;;;;40.85;27.98;;;7.40;88.60;;;;;;5059707;28;20025;-68
2021/10/16 03:54:05;;;;;;;40.33;28.85;;;7.50;88.50;;;;;;5077113;28;20470;-69
2021/10/16 03:56:30;;;;;;;41.08;29.15;;;7.50;88.60;;;;;;5059446;28;20025;-69
2021/10/16 03:58:56;;;;;;;39.80;27.15;;;7.50;88.90;;;;;;5077381;28;20032;-69
2021/10/16 04:01:22;;;;;;;47.95;32.30;;;7.50;89.20;;;;;;5049308;28;20056;-69
2021/10/16 04:03:47;;;;;;;48.53;32.55;;;7.50;89.50;;;;;;5039225;28;20045;-69
2021/10/16 04:06:15;;;;;;;46.50;32.33;;;7.50;89.50;;;;;;5047826;28;20032;-68
2021/10/16 04:08:40;;;;;;;53.35;36.47;;;7.50;89.50;;;;;;5057738;28;20467;-69
2021/10/16 04:11:06;;;;;;;65.32;44.05;;;7.50;89.40;;;;;;5039541;28;20021;-69
2021/10/16 04:13:32;;;;;;;64.38;42.50;;;7.50;89.00;;;;;;5057107;28;20029;-68
2021/10/16 04:15:57;;;;;;;65.32;43.33;;;7.50;89.40;;;;;;5039211;28;20025;-69
2021/10/16 04:18:23;;;;;;;59.08;40.65;;;7.50;89.90;;;;;;5056873;28;20102;-69
2021/10/16 04:20:49;;;;;;;58.10;39.50;;;7.50;89.80;;;;;;5039087;28;20111;-69
2021/10/16 04:23:14;;;;;;;54.88;37.72;;;7.40;89.80;;;;;;5058936;28;20020;-70
2021/10/16 04:25:40;;;;;;;64.85;39.45;;;7.40;90.10;;;;;;5044444;28;20032;-68
2021/10/16 04:28:06;;;;;;;61.95;40.70;;;7.30;90.40;;;;;;5056529;28;20035;-69
2021/10/16 04:30:32;;;;;;;55.10;36.78;;;7.30;90.60;;;;;;5056875;28;20032;-69
2021/10/16 04:32:59;;;;;;;59.42;37.92;;;7.40;90.80;;;;;;5038952;28;20025;-69
2021/10/16 04:35:25;;;;;;;59.50;35.97;;;7.40;91.00;;;;;;5067341;28;20078;-67
2021/10/16 04:37:52;;;;;;;48.63;34.22;;;7.40;90.80;;;;;;5058523;28;20033;-69
2021/10/16 04:40:20;;;;;;;50.58;32.42;;;7.40;90.80;;;;;;5076486;28;20032;-69
2021/10/16 04:42:47;;;;;;;53.58;34.55;;;7.60;90.70;;;;;;5076289;28;20021;-69
2021/10/16 04:45:13;;;;;;;50.67;34.63;;;7.60;90.60;;;;;;5076271;28;20454;-69
2021/10/16 04:47:39;;;;;;;52.53;32.75;;;7.60;90.70;;;;;;5076346;28;20021;-69
2021/10/16 04:50:07;;;;;;;39.38;25.90;;;7.70;90.60;;;;;;5076201;28;20459;-68
2021/10/16 04:52:33;;;;;;;40.97;25.88;;;7.70;90.40;;;;;;5075685;28;20024;-68
2021/10/16 04:54:59;;;;;;;41.58;27.10;;;7.80;90.10;;;;;;5075597;28;20352;-70
2021/10/16 04:57:24;;;;;;;41.10;26.05;;;7.80;90.10;;;;;;5059182;28;20024;-70
2021/10/16 04:59:50;;;;;;;32.15;22.85;;;7.90;90.00;;;;;;5058525;28;20032;-69
2021/10/16 05:02:16;;;;;;;37.33;24.17;;;8.00;89.40;;;;;;5051896;28;20395;-69
2021/10/16 05:04:41;;;;;;;36.15;24.63;;;8.00;88.60;;;;;;5021827;28;20065;-69
2021/10/16 05:07:07;;;;;;;35.67;23.23;;;8.10;88.40;;;;;;5016708;28;20460;-71
2021/10/16 05:09:33;;;;;;;34.90;22.83;;;8.20;87.90;;;;;;5016311;28;20030;-69
2021/10/16 05:11:59;;;;;;;45.45;28.70;;;8.20;86.90;;;;;;5014965;28;20079;-69
2021/10/16 05:14:24;;;;;;;39.60;25.58;;;8.20;86.80;;;;;;5014962;28;20025;-70
2021/10/16 05:16:50;;;;;;;51.28;33.05;;;8.20;86.20;;;;;;5016209;28;20026;-69
2021/10/16 05:19:16;;;;;;;40.65;27.13;;;8.20;85.30;;;;;;5016382;28;20033;-69
2021/10/16 05:21:41;;;;;;;41.38;27.55;;;8.10;85.00;;;;;;5014535;28;20033;-70
2021/10/16 05:24:07;;;;;;;44.20;26.88;;;8.10;84.60;;;;;;5053503;28;20029;-69
2021/10/16 05:26:33;;;;;;;47.15;28.15;;;8.20;84.90;;;;;;5054705;28;20021;-70
2021/10/16 05:28:59;;;;;;;42.67;27.90;;;8.20;85.20;;;;;;5054216;28;20091;-69
2021/10/16 05:31:24;;;;;;;45.95;28.23;;;8.10;85.40;;;;;;5054530;28;20025;-69
2021/10/16 05:33:50;;;;;;;57.72;39.58;;;8.20;85.20;;;;;;5054294;28;20458;-68
2021/10/16 05:36:16;;;;;;;53.05;37.38;;;8.30;84.70;;;;;;5053941;28;20033;-69
2021/10/16 05:38:42;;;;;;;65.70;43.97;;;8.30;84.60;;;;;;5055272;28;20028;-68
2021/10/16 05:41:08;;;;;;;79.90;52.30;;;8.30;84.40;;;;;;5054156;28;20426;-69
2021/10/16 05:43:34;;;;;;;74.35;48.33;;;8.40;84.40;;;;;;5054103;28;20029;-68
2021/10/16 05:46:01;;;;;;;59.10;40.38;;;8.40;84.50;;;;;;5054197;28;20025;-68
2021/10/16 05:48:31;;;;;;;70.13;46.45;;;8.40;84.40;;;;;;5046941;28;20103;-69
2021/10/16 05:50:58;;;;;;;81.75;50.03;;;8.50;84.30;;;;;;5035383;28;20025;-70
2021/10/16 05:53:24;;;;;;;70.32;48.08;;;8.50;84.20;;;;;;5035113;28;20451;-72
2021/10/16 05:55:50;;;;;;;76.82;47.08;;;8.60;84.40;;;;;;5034037;28;20092;-68
2021/10/16 05:58:15;;;;;;;85.43;50.45;;;8.70;84.90;;;;;;5033856;28;20029;-75
2021/10/16 06:00:41;;;;;;;79.85;48.80;;;8.70;85.00;;;;;;5033668;28;20486;-76
2021/10/16 06:03:07;;;;;;;110.68;64.65;;;8.80;85.60;;;;;;5033499;28;20025;-82
2021/10/16 06:05:37;;;;;;;112.82;64.53;;;8.90;85.20;;;;;;5074303;28;20040;-72
2021/10/16 06:08:03;;;;;;;115.00;69.43;;;9.00;84.70;;;;;;5055921;28;20074;-76
2021/10/16 06:10:29;;;;;;;114.13;67.15;;;9.10;84.40;;;;;;5055716;28;20490;-75
2021/10/16 06:12:54;;;;;;;97.68;57.75;;;9.20;84.30;;;;;;5056940;28;20090;-75
2021/10/16 06:15:20;;;;;;;105.53;62.53;;;9.30;84.00;;;;;;5092273;28;20039;-74
2021/10/16 06:17:46;;;;;;;122.20;68.93;;;9.30;83.70;;;;;;5094804;28;20016;-76
2021/10/16 06:20:11;;;;;;;117.38;68.50;;;9.40;83.50;;;;;;5076713;28;20032;-75
2021/10/16 06:22:37;;;;;;;106.53;64.20;;;9.50;83.20;;;;;;5072766;28;20532;-80
2021/10/16 06:25:04;;;;;;;87.53;53.60;;;9.50;82.90;;;;;;5052167;28;20028;-79
2021/10/16 06:27:30;;;;;;;108.72;60.53;;;9.60;82.50;;;;;;5056587;28;20461;-80
2021/10/16 06:29:55;;;;;;;106.55;62.53;;;9.70;82.20;;;;;;5054895;28;20060;-76
2021/10/16 06:32:21;;;;;;;100.07;56.95;;;9.80;82.10;;;;;;5056270;28;20021;-77
2021/10/16 06:34:47;;;;;;;83.65;49.00;;;9.90;81.70;;;;;;5074227;28;20020;-76
2021/10/16 06:37:13;;;;;;;67.93;40.55;;;9.90;81.50;;;;;;5074141;28;20103;-76
2021/10/16 06:39:38;;;;;;;80.85;47.25;;;9.90;81.00;;;;;;5056290;28;20024;-77
2021/10/16 06:42:04;;;;;;;88.78;46.67;;;10.00;81.20;;;;;;5056255;28;20032;-76
2021/10/16 06:44:30;;;;;;;63.90;40.67;;;10.10;81.30;;;;;;5056319;28;20025;-76
2021/10/16 06:46:55;;;;;;;58.53;35.75;;;10.30;81.10;;;;;;5056167;28;20445;-76
2021/10/16 06:49:21;;;;;;;53.03;34.08;;;10.40;80.60;;;;;;5074226;28;20044;-76
2021/10/16 06:51:47;;;;;;;50.60;32.65;;;10.50;80.70;;;;;;5054374;28;20077;-76
2021/10/16 06:54:12;;;;;;;53.33;34.25;;;10.60;80.50;;;;;;5063963;28;20028;-76
2021/10/16 06:56:39;;;;;;;53.20;34.25;;;10.60;80.40;;;;;;5074698;28;20493;-76
2021/10/16 06:59:04;;;;;;;53.95;34.42;;;10.60;80.30;;;;;;5075797;28;20028;-76
2021/10/16 07:01:30;;;;;;;57.65;36.67;;;10.60;80.30;;;;;;5075616;28;20379;-76
2021/10/16 07:03:55;;;;;;;119.22;69.68;;;10.60;80.50;;;;;;5093949;28;20390;-76
2021/10/16 07:06:21;;;;;;;101.18;60.90;;;10.60;80.70;;;;;;5075870;28;20040;-75
2021/10/16 07:08:47;;;;;;;71.60;41.35;;;10.70;80.90;;;;;;5075694;28;20070;-74
2021/10/16 07:11:13;;;;;;;65.32;38.47;;;10.70;80.50;;;;;;5075759;28;20028;-75
2021/10/16 07:13:39;;;;;;;70.97;40.58;;;10.80;80.50;;;;;;5093955;28;20069;-75
2021/10/16 07:16:05;;;;;;;89.60;50.03;;;10.80;80.00;;;;;;5075147;28;20489;-76
2021/10/16 07:18:31;;;;;;;86.40;49.25;;;10.90;80.60;;;;;;5075345;28;20067;-75
2021/10/16 07:20:57;;;;;;;95.50;54.40;;;10.90;80.00;;;;;;5093615;28;20027;-75
2021/10/16 07:23:28;;;;;;;102.70;56.90;;;10.90;80.30;;;;;;5075619;28;20027;-76
2021/10/16 07:25:55;;;;;;;75.13;43.15;;;10.90;80.40;;;;;;5075847;28;20119;-75
2021/10/16 07:28:21;;;;;;;81.38;45.90;;;11.00;79.80;;;;;;5075553;28;20050;-75
2021/10/16 07:30:47;;;;;;;81.95;46.47;;;11.00;79.60;;;;;;5075656;28;20020;-75
2021/10/16 07:33:13;;;;;;;62.00;39.50;;;11.10;79.90;;;;;;5093773;28;20032;-76
2021/10/16 07:35:41;;;;;;;65.57;42.25;;;11.20;79.50;;;;;;5094015;28;20020;-75
2021/10/16 07:38:06;;;;;;;53.03;34.40;;;11.20;79.40;;;;;;5075607;28;20028;-76
2021/10/16 07:40:32;;;;;;;56.75;37.58;;;11.20;79.30;;;;;;5075491;28;20027;-75
2021/10/16 07:42:57;;;;;;;58.67;38.13;;;11.20;79.30;;;;;;5093647;28;20027;-75
2021/10/16 07:45:24;;;;;;;54.63;35.90;;;11.20;79.40;;;;;;5075565;28;20024;-75
2021/10/16 07:47:50;;;;;;;41.90;29.35;;;11.10;79.70;;;;;;5093609;28;20466;-75
2021/10/16 07:50:16;;;;;;;40.95;29.65;;;11.10;79.40;;;;;;5092580;28;20067;-75
2021/10/16 07:52:42;;;;;;;55.05;35.45;;;11.00;79.30;;;;;;5093527;28;20055;-75
2021/10/16 07:55:07;;;;;;;49.08;29.40;;;11.10;80.30;;;;;;5075334;28;20458;-75
2021/10/16 07:57:33;;;;;;;36.63;24.23;;;11.10;79.90;;;;;;5075420;28;20474;-76
2021/10/16 07:59:59;;;;;;;36.20;25.38;;;11.10;79.80;;;;;;5093461;28;20101;-75
2021/10/16 08:02:24;;;;;;;44.38;28.00;;;11.10;79.40;;;;;;5093762;28;20031;-75
2021/10/16 08:04:50;;;;;;;40.35;27.20;;;11.10;79.10;;;;;;5093582;28;20044;-75
2021/10/16 08:07:16;;;;;;;41.22;28.35;;;11.10;79.10;;;;;;5080045;28;20036;-75
2021/10/16 08:09:41;;;;;;;51.97;31.58;;;11.10;79.40;;;;;;5055090;28;20071;-76
2021/10/16 08:12:07;;;;;;;35.72;22.65;;;11.10;79.80;;;;;;5054864;28;20433;-75
2021/10/16 08:14:33;;;;;;;58.53;36.65;;;11.10;79.90;;;;;;5073326;28;20056;-75
2021/10/16 08:16:58;;;;;;;39.63;25.30;;;11.10;80.10;;;;;;5073185;28;20032;-75
2021/10/16 08:19:24;;;;;;;38.20;24.85;;;11.10;80.10;;;;;;5073598;28;20028;-75
2021/10/16 08:21:50;;;;;;;34.92;22.20;;;11.20;80.00;;;;;;5073033;28;20025;-75
2021/10/16 08:24:15;;;;;;;31.88;22.48;;;11.20;80.00;;;;;;5055374;28;20033;-76
2021/10/16 08:26:41;;;;;;;29.55;20.90;;;11.30;80.00;;;;;;5073237;28;20424;-75
2021/10/16 08:29:07;;;;;;;32.30;20.08;;;11.30;79.70;;;;;;5075933;28;20040;-74
2021/10/16 08:31:33;;;;;;;33.63;21.70;;;11.30;79.70;;;;;;5076618;28;20020;-75
2021/10/16 08:33:58;;;;;;;27.23;19.10;;;11.30;80.30;;;;;;5063173;28;20028;-75
2021/10/16 08:36:24;;;;;;;26.77;19.70;;;11.40;79.70;;;;;;5078635;28;20024;-74
2021/10/16 08:38:52;;;;;;;30.63;20.50;;;11.40;79.50;;;;;;5096746;28;20063;-74
2021/10/16 08:41:18;;;;;;;29.33;19.95;;;11.50;79.30;;;;;;5078673;28;20024;-74
2021/10/16 08:43:44;;;;;;;27.52;19.80;;;11.60;79.30;;;;;;5096721;28;20412;-74
2021/10/16 08:46:12;;;;;;;32.97;21.17;;;11.70;79.00;;;;;;5096784;28;20020;-74
2021/10/16 08:48:42;;;;;;;28.08;20.77;;;11.80;78.90;;;;;;5096501;28;20474;-74
2021/10/16 08:51:09;;;;;;;33.90;20.33;;;11.90;78.80;;;;;;5078635;28;20031;-75
2021/10/16 08:53:35;;;;;;;27.60;20.02;;;11.90;78.90;;;;;;5078395;28;20031;-75
2021/10/16 08:56:04;;;;;;;32.45;21.50;;;12.00;79.40;;;;;;5096663;28;20378;-75
2021/10/16 08:58:31;;;;;;;32.08;22.88;;;12.00;79.60;;;;;;5084226;28;20058;-74
2021/10/16 09:00:59;;;;;;;29.85;22.20;;;12.10;79.50;;;;;;5076453;28;20028;-74
2021/10/16 09:03:29;;;;;;;31.50;22.35;;;12.10;79.00;;;;;;5075793;28;20055;-75
2021/10/16 09:06:09;;;;;;;30.55;21.25;;;12.20;79.00;;;;;;5058204;28;20195;-75
2021/10/16 09:08:51;;;;;;;30.38;21.52;;;12.20;79.30;;;;;;5076281;28;20044;-75
2021/10/16 09:11:17;;;;;;;33.03;22.35;;;12.30;78.90;;;;;;5075995;28;20325;-75
2021/10/16 09:13:52;;;;;;;29.42;21.77;;;12.40;78.90;;;;;;5057876;28;20032;-75
2021/10/16 09:16:24;;;;;;;32.38;23.42;;;12.40;78.60;;;;;;5076099;28;20055;-75
2021/10/16 09:18:52;;;;;;;36.15;23.35;;;12.40;78.60;;;;;;5076183;28;20032;-75
2021/10/16 09:21:20;;;;;;;35.13;25.23;;;12.40;79.10;;;;;;5076307;28;20490;-75
2021/10/16 09:23:46;;;;;;;35.83;24.98;;;12.40;79.10;;;;;;5075630;28;20378;-75
2021/10/16 09:26:13;;;;;;;36.10;25.48;;;12.40;79.60;;;;;;5057822;28;20024;-76
2021/10/16 09:28:39;;;;;;;36.35;26.17;;;12.50;80.00;;;;;;5075480;28;20489;-75
2021/10/16 09:31:10;;;;;;;42.60;29.40;;;12.50;80.30;;;;;;5075693;28;20054;-75
2021/10/16 09:33:46;;;;;;;48.65;33.13;;;12.70;79.90;;;;;;5075629;28;20116;-75
2021/10/16 09:36:25;;;;;;;50.33;33.10;;;12.80;80.00;;;;;;5057573;28;20107;-75
2021/10/16 09:38:51;;;;;;;48.80;34.38;;;12.90;80.00;;;;;;5074940;28;20032;-76
2021/10/16 09:41:36;;;;;;;50.90;34.35;;;13.00;80.10;;;;;;5057157;28;20052;-75
2021/10/16 09:44:04;;;;;;;53.67;36.45;;;13.10;79.70;;;;;;5057268;28;20055;-75
2021/10/16 09:46:29;;;;;;;49.83;34.88;;;13.20;78.60;;;;;;5075308;28;20029;-75
2021/10/16 09:49:09;;;;;;;51.58;33.63;;;13.30;78.20;;;;;;5083133;28;20036;-74
2021/10/16 09:51:50;;;;;;;49.83;33.42;;;13.40;76.60;;;;;;5077648;28;20028;-75
2021/10/16 09:54:16;;;;;;;51.92;33.92;;;13.60;76.40;;;;;;5095397;28;20024;-76
2021/10/16 09:56:43;;;;;;;46.35;32.85;;;13.70;76.00;;;;;;5095327;28;20359;-76
2021/10/16 09:59:13;;;;;;;51.10;34.67;;;13.70;76.00;;;;;;5077125;28;20036;-76
2021/10/16 10:01:39;;;;;;;44.50;32.30;;;13.90;76.00;;;;;;5095192;28;20020;-76
2021/10/16 10:04:05;;;;;;;40.30;28.77;;;14.30;75.00;;;;;;5086070;28;20113;-76
2021/10/16 10:06:31;;;;;;;37.65;26.58;;;14.60;73.80;;;;;;5095336;28;20528;-76
2021/10/16 10:08:57;;;;;;;32.67;23.92;;;14.80;72.70;;;;;;5076842;28;20042;-76
2021/10/16 10:11:23;;;;;;;31.95;23.15;;;14.80;72.30;;;;;;5076631;28;20059;-76
2021/10/16 10:13:50;;;;;;;35.55;22.92;;;14.90;71.40;;;;;;5077245;28;20445;-75
2021/10/16 10:16:16;;;;;;;33.47;22.95;;;14.90;70.80;;;;;;5095171;28;20621;-76
2021/10/16 10:19:01;;;;;;;34.78;24.70;;;15.00;70.40;;;;;;5095232;28;20032;-75
2021/10/16 10:21:35;;;;;;;30.73;21.55;;;15.00;70.40;;;;;;5076751;28;20050;-76
2021/10/16 10:24:06;;;;;;;34.30;22.30;;;15.00;70.50;;;;;;5076790;28;20024;-76
2021/10/16 10:26:34;;;;;;;29.15;20.40;;;15.00;70.30;;;;;;5077076;28;20020;-76
2021/10/16 10:29:18;;;;;;;28.88;19.45;;;15.00;69.80;;;;;;5092930;28;20028;-75
2021/10/16 10:31:56;;;;;;;24.88;18.58;;;15.00;69.50;;;;;;5094797;28;20050;-76
2021/10/16 10:34:23;;;;;;;28.40;17.65;;;14.90;69.20;;;;;;5077322;28;20020;-76
2021/10/16 10:37:02;;;;;;;24.73;17.50;;;14.90;68.80;;;;;;5094419;28;20032;-75
2021/10/16 10:39:34;;;;;;;28.92;18.48;;;14.90;68.90;;;;;;5076672;28;20032;-76
2021/10/16 10:42:01;;;;;;;27.58;18.58;;;14.90;68.90;;;;;;5092519;28;20024;-76
2021/10/16 10:44:50;;;;;;;29.33;19.45;;;15.00;68.70;;;;;;5076240;28;20029;-76
2021/10/16 10:47:26;;;;;;;27.30;18.67;;;15.00;68.90;;;;;;5094573;28;20106;-76
2021/10/16 10:49:53;;;;;;;36.28;23.98;;;15.00;68.40;;;;;;5076138;28;20042;-76
2021/10/16 10:52:22;;;;;;;40.78;27.25;;;14.90;68.90;;;;;;5075362;28;20028;-76
2021/10/16 10:55:06;;;;;;;44.85;28.85;;;14.90;69.30;;;;;;5063759;28;20059;-76
2021/10/16 11:00:33;;;;;;;47.63;27.85;;;14.80;69.90;;;;;;5074023;28;20038;-76
2021/10/16 11:02:59;;;;;;;53.08;29.02;;;14.70;70.30;;;;;;5074378;28;20119;-75
2021/10/16 11:05:34;;;;;;;44.10;28.27;;;14.70;70.80;;;;;;5075605;28;20131;-76
2021/10/16 11:08:14;;;;;;;45.50;28.95;;;14.60;71.10;;;;;;5076803;28;20401;-76
2021/10/16 11:10:42;;;;;;;48.65;29.80;;;14.50;71.10;;;;;;5094313;28;20032;-76
2021/10/16 11:13:20;;;;;;;51.05;29.98;;;14.50;71.40;;;;;;5075908;28;20028;-76
2021/10/16 11:15:56;;;;;;;44.75;30.60;;;14.50;71.80;;;;;;5093955;28;20028;-76
2021/10/16 11:18:22;;;;;;;51.90;31.50;;;14.40;71.90;;;;;;5093824;28;20020;-76
2021/10/16 11:20:47;;;;;;;47.38;32.13;;;14.40;72.10;;;;;;5079248;28;20420;-77
2021/10/16 11:23:24;;;;;;;45.95;32.95;;;14.30;72.10;;;;;;5073745;28;20459;-76
2021/10/16 11:26:08;;;;;;;43.10;29.95;;;14.30;72.50;;;;;;5055821;28;20024;-77
2021/10/16 11:28:36;;;;;;;43.47;31.52;;;14.30;72.30;;;;;;5056302;28;20048;-76
2021/10/16 11:31:03;;;;;;;46.28;30.50;;;14.20;72.30;;;;;;5074011;28;20021;-76
2021/10/16 11:33:32;;;;;;;50.20;32.25;;;14.30;72.30;;;;;;5073935;28;20068;-76
2021/10/16 11:35:59;;;;;;;50.42;31.77;;;14.30;72.40;;;;;;5055752;28;20021;-76
2021/10/16 11:38:28;;;;;;;48.97;31.45;;;14.30;72.20;;;;;;5055470;28;20041;-76
2021/10/16 11:40:56;;;;;;;52.15;32.38;;;14.30;71.90;;;;;;5073760;28;20382;-76
2021/10/16 11:43:27;;;;;;;58.97;31.27;;;14.30;71.90;;;;;;5065247;28;20032;-76
2021/10/16 11:45:55;;;;;;;51.45;32.60;;;14.20;72.10;;;;;;5075442;28;20030;-76
2021/10/16 11:48:22;;;;;;;49.03;31.85;;;14.20;72.60;;;;;;5093595;28;20060;-75
2021/10/16 11:51:05;;;;;;;46.28;31.95;;;14.20;73.00;;;;;;5089513;28;20490;-74
2021/10/16 11:53:34;;;;;;;44.90;30.52;;;14.10;73.20;;;;;;5073204;28;20059;-75
2021/10/16 11:56:14;;;;;;;42.50;31.45;;;14.10;73.20;;;;;;5073212;28;20097;-75
2021/10/16 11:58:41;;;;;;;48.35;32.70;;;14.10;73.10;;;;;;5055408;28;20028;-75
2021/10/16 12:01:09;;;;;;;50.25;33.80;;;14.00;72.60;;;;;;5055438;28;20064;-75
2021/10/16 12:03:41;;;;;;;46.42;32.42;;;13.90;72.50;;;;;;5057734;28;20040;-75
2021/10/16 12:06:18;;;;;;;49.30;32.13;;;13.90;72.60;;;;;;5059365;28;20174;-75
2021/10/16 12:09:00;;;;;;;44.75;31.40;;;13.80;72.80;;;;;;5077494;28;20032;-75
2021/10/16 12:11:31;;;;;;;53.78;31.08;;;13.70;73.10;;;;;;5077363;28;20056;-75
2021/10/16 12:14:00;;;;;;;55.47;36.13;;;13.70;73.70;;;;;;5077062;28;20021;-75
2021/10/16 12:16:37;;;;;;;51.45;29.48;;;13.70;73.40;;;;;;5077075;28;20058;-75
2021/10/16 12:19:05;;;;;;;43.28;29.17;;;13.70;73.20;;;;;;5077206;28;20050;-75
2021/10/16 12:21:42;;;;;;;41.15;28.55;;;13.80;73.60;;;;;;5059038;28;20608;-75
2021/10/16 12:24:16;;;;;;;44.60;27.60;;;13.80;73.50;;;;;;5058897;28;20025;-75
2021/10/16 12:26:45;;;;;;;41.55;28.65;;;13.80;73.50;;;;;;5058807;28;20051;-75
2021/10/16 12:29:27;;;;;;;39.78;27.63;;;13.70;73.10;;;;;;5059016;28;20445;-75
2021/10/16 12:31:53;;;;;;;42.22;27.83;;;13.70;73.00;;;;;;5058809;28;20032;-76
2021/10/16 12:34:20;;;;;;;37.78;27.17;;;13.60;73.10;;;;;;5077532;28;20039;-75